Airfield :
LOGIN :

Register | Disclaimer

   EN    FR    IT 

 










Legend :    VFR   Marginal VFR   IFR   Intensive IFR   Very Intensive IFR
Visi :
Ceiling :
>= 8 km
>= 3000ft
5 to 8 km
1000 to 3000 ft
1500m to 5 km
500 to 1000 ft
800 to 1500m
200 to 500 ft
< 800m
< 200 ft
Symbols :   Thunderstorms  Fog  Heavy snow  Heavy precipitations  Wind > 20 kt
SIGMETs :     Misc.  Thunderstorms  Icing  Turbulence  Mountain Waves  Volcanic Ashes







- Airport Elevation : 1090 ft
- IATA code : CFE
- Download approach charts


LFLC - Clermont-Ferrand Auvergne

CURRENT METAR :
  • 251430Z AUTO 00000KT 9999 OVC011 17/14 Q1020 TEMPO 27015G25KT 4000 SHRA SCT008 BKN012 BKN022TCU

EXPIRED METARs :
  • 251400Z AUTO VRB02KT 9999 BKN010 OVC060 16/14 Q1020 TEMPO 27015G25KT 2500 TSRA BKN014CB OVC060
  • 251330Z AUTO 13002KT 9999 BKN008 BKN029 BKN041 16/14 Q1020 TEMPO 27015G25KT 2500 TSRA BKN014CB OVC060
  • 251300Z AUTO VRB02KT 9999 BKN008 BKN034 BKN041 16/14 Q1020 TEMPO 27015G25KT 2500 TSRA BKN014CB OVC060
  • 251230Z AUTO VRB03KT 9999 SCT007/// SCT037/// BKN044/// ///TCU 15/14 Q1020 TEMPO 27015G25KT 2500 TSRA BKN014CB OVC060
  • 251200Z AUTO 10005KT 9999 -RA SCT007/// BKN042/// BKN050/// ///TCU 15/14 Q1020 TEMPO 27015G25KT 2500 TSRA BKN014CB OVC060

TAF TAF LFLC
Valid from the 25 at 15:00 until the 26 at 15:00 UTC


251400Z 2515/2615 VRB05KT 9999 BKN065 BKN100
TEMPO 2515/2519 27015G25KT 4000 SHRA SCT008 BKN012 BKN022TCU OVC060
PROB30
TEMPO 2515/2516 27015G25KT 2500 TSRA BKN008 BKN014CB OVC060
BECMG 2520/2523 BKN018
TEMPO 2600/2609 4000 -RA BR BKN012
BECMG 2613/2615 SCT016
ATIS : +33 4 73 62 74 38
No reported NOTAMs for that airfield.
1 SIGMET reported for the Marseille FIR (LFMM) :
 
Embedded thunderstorms
LFMM SIGMET 4 VALID 251300/251500 LFPW
LFMM MARSEILLE FIR/UIR EMBD TS OBS WI N4215 E00315 - N4215 E00230 - N4300 E00230 - N4300 E00300 TOP FL350 MOV E 10KT NC=



MET'MAP, your aeronautical weather chart ! - Copyright ORBIFLY December 2007 - Disclaimer

ORBIFLY MET'MAP TEAM :

Programming & Development : Alexandra Zaïnal
Concept & Development : Baudouin d'Aumeries
Co-Development & Prog : Marc-Olivier Méhu
Technical & hardware support : Manuel Goepfert

Contact : metmap@orbifly.com




SOURCES & CREDITS :

   NOAA